Time;durP1;ratioP1;P1;durP2;ratioP2;P2;SDS_P1;SDS_P2;PMS_P1;PMS_P2;Temp;Humidity;BMP_temperature;BMP_pressure;BME280_temperature;BME280_humidity;BME280_pressure;Samples;Min_cycle;Max_cycle;Signal;HPM_P1;HPM_P2
2021/12/22 00:02:03;;;;;;;25.02;17.58;;;;;;;7.69;61.56;102117.59;4948171;28;123043;-86
2021/12/22 00:04:30;;;;;;;26.98;17.95;;;;;;;7.79;61.79;102135.13;4946768;28;119451;-86
2021/12/22 00:06:56;;;;;;;28.98;17.27;;;;;;;7.75;62.01;102119.94;4962992;28;119822;-91
2021/12/22 00:09:21;;;;;;;27.58;17.75;;;;;;;7.68;62.09;102104.34;4934108;28;122934;-87
2021/12/22 00:11:49;;;;;;;27.92;18.17;;;;;;;7.75;61.40;102119.94;4929541;28;120077;-91
2021/12/22 00:14:14;;;;;;;28.35;16.75;;;;;;;7.89;61.00;102145.25;4965803;28;121854;-88
2021/12/22 00:16:40;;;;;;;29.45;17.17;;;;;;;7.84;61.34;102137.47;4931611;28;120013;-89
2021/12/22 00:19:06;;;;;;;27.25;16.80;;;;;;;7.81;61.01;102121.88;4930555;28;122716;-85
2021/12/22 00:21:32;;;;;;;27.75;16.55;;;;;;;7.83;61.19;102126.94;4961504;28;120417;-84
2021/12/22 00:23:57;;;;;;;26.08;16.38;;;;;;;7.82;61.54;102128.91;4916755;28;119587;-84
2021/12/22 00:26:23;;;;;;;28.45;16.48;;;;;;;7.75;61.04;102117.97;4941189;28;122043;-85
2021/12/22 00:28:49;;;;;;;26.55;15.88;;;;;;;7.61;61.24;102098.91;4949279;28;119957;-87
2021/12/22 00:31:18;;;;;;;24.73;15.45;;;;;;;7.54;61.26;102096.19;4948113;28;119778;-84
2021/12/22 00:33:48;;;;;;;21.38;15.23;;;;;;;7.75;60.63;102123.44;4930102;28;122101;-87
2021/12/22 00:36:16;;;;;;;23.92;15.25;;;;;;;7.81;61.53;102132.81;4946192;28;119859;-85
2021/12/22 00:38:41;;;;;;;22.42;15.25;;;;;;;7.66;60.73;102114.91;4947040;28;119750;-85
2021/12/22 00:41:07;;;;;;;27.05;15.27;;;;;;;7.53;61.37;102095.41;4928727;28;123917;-87
2021/12/22 00:43:32;;;;;;;24.10;14.70;;;;;;;7.80;61.18;102136.69;4947183;28;120446;-88
2021/12/22 00:45:58;;;;;;;23.98;14.27;;;;;;;7.87;60.36;102139.41;4930221;28;121868;-88
2021/12/22 00:48:24;;;;;;;20.48;14.55;;;;;;;7.76;60.82;102126.94;4929746;28;122601;-89
2021/12/22 00:50:50;;;;;;;24.35;14.40;;;;;;;7.82;60.80;102134.34;4927312;28;119510;-86
2021/12/22 00:53:16;;;;;;;19.17;14.00;;;;;;;7.81;60.62;102140.22;4961281;28;121766;-87
2021/12/22 00:55:42;;;;;;;23.15;14.35;;;;;;;7.82;61.06;102133.59;4948632;28;122846;-83
2021/12/22 00:58:08;;;;;;;20.58;13.23;;;;;;;7.82;59.93;102139.81;4929769;28;122810;-88
2021/12/22 01:00:34;;;;;;;25.15;14.82;;;;;;;7.73;60.87;102125.00;4944904;28;120233;-88
2021/12/22 01:03:02;;;;;;;18.98;13.48;;;;;;;7.74;60.64;102130.06;4945959;28;119528;-87
2021/12/22 01:05:28;;;;;;;21.88;13.95;;;;;;;7.83;60.74;102141.38;4949080;28;119817;-89
2021/12/22 01:07:54;;;;;;;20.42;13.57;;;;;;;7.68;60.44;102110.59;4948432;28;122946;-86
2021/12/22 01:10:23;;;;;;;23.30;13.57;;;;;;;7.75;60.73;102128.91;4931659;28;121206;-87
2021/12/22 01:12:52;;;;;;;19.65;12.88;;;;;;;7.74;60.31;102124.63;4948943;28;119393;-86
2021/12/22 01:15:18;;;;;;;22.17;13.90;;;;;;;7.76;60.68;102133.19;4966767;28;119930;-86
2021/12/22 01:17:48;;;;;;;20.42;13.40;;;;;;;7.67;60.63;102122.69;4953502;28;120089;-88
2021/12/22 01:20:23;;;;;;;20.73;13.25;;;;;;;7.80;60.33;102139.41;4920966;28;122892;-87
2021/12/22 01:22:50;;;;;;;18.73;11.95;;;;;;;7.78;60.29;102133.56;4949036;28;119456;-88
2021/12/22 01:25:19;;;;;;;21.83;12.73;;;;;;;7.85;60.53;102139.03;4950606;28;121931;-84
2021/12/22 01:27:46;;;;;;;17.73;11.30;;;;;;;7.86;60.02;102137.84;4951928;28;120165;-89
2021/12/22 01:30:19;;;;;;;17.17;11.63;;;;;;;7.89;59.83;102139.78;4966769;28;120953;-83
2021/12/22 01:32:49;;;;;;;18.75;11.73;;;;;;;7.49;59.77;102080.22;4952085;28;120431;-89
2021/12/22 01:35:18;;;;;;;20.50;12.00;;;;;;;7.89;59.88;102136.28;4952226;28;120861;-87
2021/12/22 01:37:44;;;;;;;17.48;11.15;;;;;;;7.75;59.25;102123.44;4949937;28;119532;-86
2021/12/22 01:40:12;;;;;;;21.25;11.48;;;;;;;7.78;58.85;102117.19;4953413;28;122254;-90
2021/12/22 01:42:38;;;;;;;21.38;11.63;;;;;;;7.79;59.75;102135.13;4954343;28;119778;-90
2021/12/22 01:45:26;;;;;;;18.42;11.60;;;;;;;7.76;59.94;102125.00;4951704;28;119608;-89
2021/12/22 01:50:41;;;;;;;20.13;11.73;;;;;;;7.82;59.71;102134.34;4952195;28;121474;-84
2021/12/22 01:53:19;;;;;;;19.50;12.20;;;;;;;7.81;59.25;102132.81;4935384;28;122257;-89
2021/12/22 01:55:46;;;;;;;17.85;11.85;;;;;;;7.80;58.95;102131.22;4949939;28;122859;-85
2021/12/22 01:58:12;;;;;;;15.50;12.10;;;;;;;7.71;59.37;102117.22;4932445;28;121645;-89
2021/12/22 02:00:37;;;;;;;19.50;12.00;;;;;;;7.67;59.55;102119.19;4949307;28;124377;-89
2021/12/22 02:03:03;;;;;;;19.60;12.50;;;;;;;7.69;60.05;102120.34;4939884;28;123501;-87
2021/12/22 02:05:29;;;;;;;22.25;12.25;;;;;;;7.68;60.02;102107.09;4933376;28;122285;-87
2021/12/22 02:08:00;;;;;;;18.15;11.60;;;;;;;7.62;59.47;102105.94;4931358;28;123185;-84
2021/12/22 02:10:36;;;;;;;16.65;12.05;;;;;;;7.61;59.09;102115.31;4967089;28;119721;-87
2021/12/22 02:13:04;;;;;;;19.67;12.23;;;;;;;7.74;59.56;102132.03;4949533;28;122314;-89
2021/12/22 02:15:33;;;;;;;22.52;12.68;;;;;;;7.48;59.61;102092.31;4949957;28;122993;-88
2021/12/22 02:18:03;;;;;;;16.98;12.57;;;;;;;7.77;59.94;102137.47;4930846;28;120220;-90
2021/12/22 02:20:29;;;;;;;19.15;12.90;;;;;;;7.79;59.28;102134.34;4917515;28;122926;-89
2021/12/22 02:22:56;;;;;;;18.27;12.88;;;;;;;7.79;59.60;102132.41;4929903;28;122973;-86
2021/12/22 02:25:31;;;;;;;20.83;13.02;;;;;;;7.71;59.83;102117.22;4953313;28;121069;-89
2021/12/22 02:27:57;;;;;;;20.30;13.52;;;;;;;7.68;60.08;102118.00;4938180;28;122502;-87
2021/12/22 02:30:26;;;;;;;19.00;13.18;;;;;;;7.67;59.68;102116.44;4949211;28;119852;-84
2021/12/22 02:38:07;;;;;;;17.48;13.35;;;;;;;7.67;59.73;102111.00;4948977;28;119676;-87
2021/12/22 02:40:32;;;;;;;18.40;13.02;;;;;;;7.66;60.22;102104.75;4932294;28;121964;-86
2021/12/22 02:43:05;;;;;;;16.63;12.30;;;;;;;7.58;59.96;102084.09;4956264;28;122536;-87
2021/12/22 02:45:33;;;;;;;16.95;12.77;;;;;;;7.77;59.95;102118.34;4953410;28;120970;-86
2021/12/22 02:48:00;;;;;;;16.38;12.20;;;;;;;7.78;59.98;102111.72;4932101;28;123141;-85
2021/12/22 02:50:26;;;;;;;20.05;12.85;;;;;;;7.68;59.44;102093.44;4949611;28;119749;-86
2021/12/22 02:56:04;;;;;;;18.63;12.45;;;;;;;7.67;59.56;102105.53;4912407;28;123910;-87
2021/12/22 03:06:36;;;;;;;18.38;12.82;;;;;;;7.63;59.33;102104.75;4948732;28;120128;-86
2021/12/22 03:09:24;;;;;;;18.73;12.70;;;;;;;7.61;59.52;102101.66;4951148;28;120143;-87
2021/12/22 03:11:51;;;;;;;20.77;12.93;;;;;;;7.53;59.26;102083.72;4962701;28;120795;-86
2021/12/22 03:14:18;;;;;;;17.42;11.43;;;;;;;7.66;59.60;102103.97;4966267;28;120213;-85
2021/12/22 03:16:44;;;;;;;20.52;12.57;;;;;;;7.65;59.77;102105.16;4915892;28;123198;-87
2021/12/22 03:19:16;;;;;;;17.73;12.15;;;;;;;7.65;59.57;102099.69;4949122;28;119916;-83
2021/12/22 03:21:42;;;;;;;19.63;11.70;;;;;;;7.65;60.10;102113.34;4932301;28;119525;-87
2021/12/22 03:24:09;;;;;;;19.42;13.35;;;;;;;7.48;60.11;102078.66;4927555;28;123809;-86
2021/12/22 03:26:41;;;;;;;17.75;11.82;;;;;;;7.69;59.12;102103.19;4945742;28;120094;-86
2021/12/22 03:29:08;;;;;;;21.13;13.45;;;;;;;7.56;59.24;102091.09;4933546;28;123788;-87
2021/12/22 03:31:34;;;;;;;23.23;13.73;;;;;;;7.55;59.62;102086.81;4934712;28;123148;-85
2021/12/22 03:34:00;;;;;;;17.70;13.00;;;;;;;7.59;59.40;102099.31;4946769;28;122309;-86
2021/12/22 03:36:25;;;;;;;18.35;12.82;;;;;;;7.58;58.77;102100.50;4931731;28;123040;-86
2021/12/22 03:38:51;;;;;;;18.67;12.98;;;;;;;7.29;59.57;102061.53;4948345;28;119665;-84
2021/12/22 03:41:17;;;;;;;16.55;13.52;;;;;;;7.64;59.61;102109.06;4947370;28;121961;-88
2021/12/22 03:43:42;;;;;;;19.60;13.35;;;;;;;7.49;59.11;102091.13;4949738;28;120370;-86
2021/12/22 03:46:09;;;;;;;20.38;14.15;;;;;;;7.61;59.29;102112.56;4931947;28;120267;-85
2021/12/22 03:48:35;;;;;;;18.85;14.18;;;;;;;7.53;59.61;102094.63;4947581;28;122185;-88
2021/12/22 03:51:01;;;;;;;21.65;13.85;;;;;;;7.56;60.31;102102.03;4967271;28;120496;-88
2021/12/22 03:53:27;;;;;;;17.83;13.63;;;;;;;7.54;59.36;102091.50;4952411;28;120622;-88
2021/12/22 03:55:52;;;;;;;20.23;13.40;;;;;;;7.52;59.79;102091.13;4963628;28;120670;-86
2021/12/22 03:58:18;;;;;;;23.00;14.77;;;;;;;7.51;59.49;102086.84;4949911;28;119452;-89
2021/12/22 04:00:44;;;;;;;22.17;15.27;;;;;;;7.42;59.66;102086.47;4964996;28;119871;-85
2021/12/22 04:03:19;;;;;;;21.05;14.25;;;;;;;7.50;59.80;102092.69;4945361;28;123596;-85
2021/12/22 04:05:45;;;;;;;23.35;15.25;;;;;;;7.30;60.10;102071.28;4932691;28;119587;-85
2021/12/22 04:08:13;;;;;;;23.08;15.35;;;;;;;7.53;59.77;102111.00;4933332;28;119713;-85
2021/12/22 04:10:39;;;;;;;21.92;15.05;;;;;;;7.42;60.06;102088.44;4963926;28;120337;-84
2021/12/22 04:13:05;;;;;;;25.10;15.77;;;;;;;7.41;59.97;102086.88;4949707;28;122034;-84
2021/12/22 04:15:31;;;;;;;23.48;15.45;;;;;;;7.50;59.74;102101.66;4919809;28;122754;-85
2021/12/22 04:17:57;;;;;;;20.52;16.00;;;;;;;7.49;60.41;102104.78;4915032;28;120583;-87
2021/12/22 04:20:23;;;;;;;27.92;17.10;;;;;;;7.45;60.20;102093.09;4950892;28;122586;-87
2021/12/22 04:22:49;;;;;;;20.58;16.15;;;;;;;7.52;59.88;102099.31;4933848;28;122819;-86
2021/12/22 04:25:21;;;;;;;24.50;17.33;;;;;;;7.43;60.11;102085.31;4948330;28;119598;-85
2021/12/22 04:27:49;;;;;;;24.13;17.17;;;;;;;7.54;59.95;102104.38;4962183;28;122041;-87
2021/12/22 04:30:15;;;;;;;20.52;16.27;;;;;;;7.47;60.30;102090.75;4944682;28;124981;-88
2021/12/22 04:32:40;;;;;;;28.00;16.83;;;;;;;7.37;60.21;102071.28;4946670;28;120217;-86
2021/12/22 04:35:06;;;;;;;22.95;17.10;;;;;;;7.49;60.65;102085.69;4925920;28;122923;-88
2021/12/22 04:37:32;;;;;;;26.20;18.00;;;;;;;7.18;60.49;102043.66;4939723;28;123013;-86
2021/12/22 04:39:58;;;;;;;24.83;17.25;;;;;;;7.45;60.28;102082.97;4946835;28;121744;-85
2021/12/22 04:42:23;;;;;;;25.63;16.77;;;;;;;7.43;60.14;102079.06;4929196;28;122813;-86
2021/12/22 04:44:53;;;;;;;28.02;17.70;;;;;;;7.37;60.33;102071.28;4951310;28;121929;-88
2021/12/22 04:47:19;;;;;;;24.55;18.00;;;;;;;7.26;60.44;102059.59;4947512;28;122335;-83
2021/12/22 04:49:45;;;;;;;24.35;17.45;;;;;;;7.43;60.42;102068.94;4913563;28;123549;-87
2021/12/22 04:52:16;;;;;;;23.98;17.63;;;;;;;7.38;60.49;102078.31;4947400;28;120362;-85
2021/12/22 04:54:49;;;;;;;26.02;16.83;;;;;;;7.40;60.69;102075.19;4947565;28;122179;-87
2021/12/22 04:57:15;;;;;;;;;;;;;;;7.44;60.90;102088.81;4950707;28;123037;-87
2021/12/22 04:59:40;;;;;;;25.52;17.38;;;;;;;7.38;60.77;102072.84;4929760;28;120340;-87
2021/12/22 05:02:06;;;;;;;26.55;18.00;;;;;;;7.09;61.10;102033.13;4942840;28;119866;-86
2021/12/22 05:04:34;;;;;;;22.73;17.08;;;;;;;7.30;60.64;102065.06;4947446;28;120011;-87
2021/12/22 05:07:00;;;;;;;27.92;18.55;;;;;;;7.17;61.22;102033.91;4947289;28;122699;-86
2021/12/22 05:09:25;;;;;;;23.33;17.80;;;;;;;7.33;60.71;102061.53;4945873;28;122720;-87
2021/12/22 05:11:52;;;;;;;24.33;17.85;;;;;;;7.25;61.04;102058.06;4930465;28;119629;-88
2021/12/22 05:14:17;;;;;;;25.65;17.23;;;;;;;7.43;60.78;102079.84;4948699;28;121870;-87
2021/12/22 05:16:48;;;;;;;27.15;16.00;;;;;;;7.40;61.39;102072.44;4963352;28;120300;-86
2021/12/22 05:19:15;;;;;;;26.73;17.70;;;;;;;7.41;60.88;102062.31;4963597;28;119930;-86
2021/12/22 05:21:42;;;;;;;24.80;16.80;;;;;;;7.12;61.13;102013.25;4961674;28;120838;-88
2021/12/22 05:24:07;;;;;;;25.35;16.75;;;;;;;7.19;61.63;102018.69;4949565;28;119817;-86
2021/12/22 05:26:34;;;;;;;24.88;18.05;;;;;;;7.48;61.47;102054.88;4929683;28;122452;-85
2021/12/22 05:29:00;;;;;;;27.60;18.23;;;;;;;7.58;61.14;102065.00;4945836;28;123244;-84
2021/12/22 05:31:27;;;;;;;26.75;18.98;;;;;;;7.42;61.57;102037.34;4946932;28;120200;-87
2021/12/22 05:33:53;;;;;;;28.00;19.23;;;;;;;7.54;62.05;102069.66;4929928;28;122837;-87
2021/12/22 05:36:19;;;;;;;25.60;17.85;;;;;;;7.46;61.81;102040.06;4929902;28;123250;-86
2021/12/22 05:38:45;;;;;;;26.23;18.80;;;;;;;7.32;62.41;102017.06;4963227;28;119904;-85
2021/12/22 05:41:11;;;;;;;25.02;18.35;;;;;;;7.36;62.15;102030.75;4933771;28;122299;-87
2021/12/22 05:43:37;;;;;;;25.35;17.95;;;;;;;7.37;61.97;102022.16;4964822;28;119449;-85
2021/12/22 05:46:03;;;;;;;23.13;18.27;;;;;;;7.57;61.71;102046.25;4947581;28;122243;-84
2021/12/22 05:48:29;;;;;;;24.90;18.00;;;;;;;7.49;62.07;102039.25;4930116;28;122605;-86
2021/12/22 05:50:57;;;;;;;24.88;17.90;;;;;;;7.32;62.04;102014.34;4944483;28;119890;-86
2021/12/22 05:53:27;;;;;;;28.23;18.20;;;;;;;7.46;62.39;102037.31;4966490;28;119608;-87
2021/12/22 05:55:53;;;;;;;26.20;18.30;;;;;;;7.47;61.70;102033.41;4932698;28;123562;-86
2021/12/22 05:58:20;;;;;;;23.15;18.13;;;;;;;7.48;62.28;102043.16;4966165;28;119867;-85
2021/12/22 06:00:46;;;;;;;23.42;17.92;;;;;;;7.47;62.21;102039.66;4966234;28;119793;-86
2021/12/22 06:03:11;;;;;;;28.77;19.60;;;;;;;7.50;61.80;102038.09;4937454;28;122524;-85
2021/12/22 06:05:38;;;;;;;24.60;19.00;;;;;;;7.61;62.37;102047.03;4934802;28;122525;-85
2021/12/22 06:08:04;;;;;;;29.20;20.10;;;;;;;7.46;62.35;102021.72;4948981;28;124186;-86
2021/12/22 06:10:30;;;;;;;26.17;19.98;;;;;;;7.55;61.95;102033.00;4948610;28;120338;-83
2021/12/22 06:12:56;;;;;;;26.65;19.40;;;;;;;7.60;61.77;102043.53;4932736;28;122101;-85
2021/12/22 06:15:22;;;;;;;26.75;19.75;;;;;;;7.54;62.55;102036.91;4949201;28;122905;-86
2021/12/22 06:17:53;;;;;;;26.67;19.70;;;;;;;7.46;62.75;102027.19;4951235;28;119721;-86
2021/12/22 06:20:19;;;;;;;25.42;19.95;;;;;;;7.45;62.49;102025.63;4949598;28;122220;-87
2021/12/22 06:22:44;;;;;;;28.95;20.10;;;;;;;7.54;62.44;102047.03;4934137;28;123641;-86
2021/12/22 06:25:11;;;;;;;27.17;19.02;;;;;;;7.44;62.23;102028.75;4953593;28;119942;-84
2021/12/22 06:27:37;;;;;;;24.65;18.52;;;;;;;7.43;62.33;102024.47;4949918;28;124075;-87
2021/12/22 06:30:03;;;;;;;29.98;19.88;;;;;;;7.48;62.95;102038.47;4949231;28;119389;-87
2021/12/22 06:32:29;;;;;;;27.38;19.45;;;;;;;7.54;62.97;102030.66;4932380;28;122081;-87
2021/12/22 06:34:54;;;;;;;29.52;19.80;;;;;;;7.41;63.08;102010.44;4936440;28;123136;-85
2021/12/22 06:37:20;;;;;;;27.58;20.25;;;;;;;7.12;63.07;101971.56;4962878;28;119646;-86
2021/12/22 06:39:48;;;;;;;28.85;19.60;;;;;;;7.52;63.12;102033.00;4946585;28;121908;-89
2021/12/22 06:42:14;;;;;;;27.35;20.23;;;;;;;7.33;63.05;102002.28;4949441;28;123289;-87
2021/12/22 06:44:40;;;;;;;30.58;20.05;;;;;;;7.23;62.66;101978.53;4949301;28;119903;-88
2021/12/22 06:47:06;;;;;;;30.60;20.35;;;;;;;7.46;63.11;102019.00;4967722;28;120334;-88
2021/12/22 06:49:31;;;;;;;28.08;18.80;;;;;;;7.45;63.04;102011.97;4921521;28;119494;-88
2021/12/22 06:51:57;;;;;;;29.80;20.15;;;;;;;7.47;62.87;102009.63;4965271;28;122351;-87
2021/12/22 06:54:22;;;;;;;30.35;19.88;;;;;;;7.55;62.44;102018.56;4932270;28;123785;-88
2021/12/22 06:56:48;;;;;;;31.25;19.80;;;;;;;7.54;63.11;102017.78;4917961;28;119901;-85
2021/12/22 06:59:15;;;;;;;31.67;19.63;;;;;;;7.50;62.64;102005.31;4951280;28;119490;-87
2021/12/22 07:01:40;;;;;;;29.42;19.75;;;;;;;7.39;62.55;102003.44;4947338;28;123930;-87
2021/12/22 07:04:06;;;;;;;28.42;19.33;;;;;;;7.26;62.73;101985.13;4948939;28;119615;-86
2021/12/22 07:06:32;;;;;;;26.25;19.92;;;;;;;7.44;63.01;102017.84;4919064;28;122048;-86
2021/12/22 07:08:59;;;;;;;25.58;18.83;;;;;;;7.55;62.90;102026.75;4931945;28;121760;-89
2021/12/22 07:11:25;;;;;;;29.00;19.40;;;;;;;7.32;62.87;102003.44;4948375;28;122342;-87
2021/12/22 07:13:52;;;;;;;27.17;18.83;;;;;;;7.31;62.61;101999.16;4966467;28;119981;-88
2021/12/22 07:16:17;;;;;;;30.65;19.65;;;;;;;7.31;62.87;102010.06;4930907;28;119818;-88
2021/12/22 07:18:43;;;;;;;30.40;21.15;;;;;;;7.20;63.04;101990.22;4951722;28;119825;-88
2021/12/22 07:21:10;;;;;;;29.65;20.90;;;;;;;7.36;63.00;102034.25;4938614;28;123477;-85
2021/12/22 07:23:36;;;;;;;31.38;19.40;;;;;;;7.32;63.43;102019.03;4947395;28;119730;-86
2021/12/22 07:26:01;;;;;;;31.60;23.08;;;;;;;7.40;63.60;102036.97;4949269;28;122082;-85
2021/12/22 07:28:27;;;;;;;32.67;22.00;;;;;;;7.31;63.65;102018.25;4937151;28;123602;-86
2021/12/22 07:30:53;;;;;;;33.83;22.58;;;;;;;7.41;64.11;102037.75;4916193;28;121979;-84
2021/12/22 07:33:18;;;;;;;31.65;20.17;;;;;;;7.40;63.94;102042.41;4916119;28;123304;-85
2021/12/22 07:35:59;;;;;;;33.25;22.15;;;;;;;7.45;63.38;102046.69;4947429;28;119484;-85
2021/12/22 07:38:26;;;;;;;36.85;26.30;;;;;;;7.43;64.77;102038.91;4947342;28;120161;-85
2021/12/22 07:40:52;;;;;;;32.47;20.67;;;;;;;7.46;64.19;102051.75;4930274;28;122557;-84
2021/12/22 07:43:18;;;;;;;34.90;22.42;;;;;;;7.38;63.85;102042.81;4949605;28;119829;-84
2021/12/22 07:45:44;;;;;;;35.17;20.60;;;;;;;7.35;63.90;102040.88;4933146;28;122442;-86
2021/12/22 07:48:10;;;;;;;29.75;21.13;;;;;;;7.35;64.20;102049.06;4912760;28;123045;-85
2021/12/22 07:50:35;;;;;;;30.83;19.73;;;;;;;7.43;63.38;102057.22;4917921;28;120820;-83
2021/12/22 07:53:01;;;;;;;32.03;20.83;;;;;;;7.44;63.24;102053.31;4947781;28;122911;-87
2021/12/22 07:55:27;;;;;;;30.63;20.83;;;;;;;7.44;64.06;102048.66;4946519;28;119531;-85
2021/12/22 07:57:52;;;;;;;28.17;20.15;;;;;;;7.39;63.72;102041.66;4948396;28;122160;-86
2021/12/22 08:00:18;;;;;;;30.70;20.88;;;;;;;7.33;63.49;102042.44;4945061;28;123555;-86
2021/12/22 08:02:44;;;;;;;29.73;20.75;;;;;;;7.44;63.29;102058.78;4947885;28;119778;-86
2021/12/22 08:05:09;;;;;;;31.67;20.10;;;;;;;7.33;63.55;102054.16;4933258;28;119764;-86
2021/12/22 08:07:35;;;;;;;27.60;20.55;;;;;;;7.37;63.28;102063.09;4918608;28;123818;-85
2021/12/22 08:10:06;;;;;;;31.33;21.63;;;;;;;7.32;63.91;102049.84;4949568;28;119385;-85
2021/12/22 08:12:32;;;;;;;33.90;21.42;;;;;;;7.39;63.64;102058.03;4951942;28;119799;-85
2021/12/22 08:14:58;;;;;;;31.95;21.77;;;;;;;7.34;63.76;102042.06;4932606;28;119481;-85
2021/12/22 08:17:25;;;;;;;35.85;20.30;;;;;;;7.31;63.28;102042.81;4932884;28;122922;-86
2021/12/22 08:19:51;;;;;;;30.02;21.95;;;;;;;7.41;63.83;102060.34;4964117;28;119986;-85
2021/12/22 08:22:16;;;;;;;29.45;20.75;;;;;;;7.41;63.63;102048.66;4947484;28;119747;-87
2021/12/22 08:24:43;;;;;;;31.08;21.17;;;;;;;7.37;63.53;102044.00;4923388;28;122233;-86
2021/12/22 08:27:08;;;;;;;32.15;20.55;;;;;;;7.29;63.37;102047.91;4947153;28;123338;-87
2021/12/22 08:29:36;;;;;;;31.70;20.75;;;;;;;7.31;63.46;102048.28;4931342;28;121276;-86
2021/12/22 08:32:03;;;;;;;28.63;19.48;;;;;;;7.30;63.21;102043.22;4948014;28;122300;-86
2021/12/22 08:34:36;;;;;;;27.27;20.20;;;;;;;7.14;63.36;102030.03;4952496;28;119999;-86
2021/12/22 08:39:45;;;;;;;;;;;;;;;7.42;63.15;102069.31;4952382;28;123938;-85
2021/12/22 08:42:11;;;;;;;27.08;19.35;;;;;;;7.37;63.35;102059.59;4927603;28;120296;-86
2021/12/22 08:44:37;;;;;;;29.17;20.45;;;;;;;7.41;63.42;102062.31;4931963;28;123080;-87
2021/12/22 08:47:03;;;;;;;29.13;18.92;;;;;;;7.34;63.10;102055.69;4931630;28;123283;-82
2021/12/22 08:49:29;;;;;;;31.90;19.67;;;;;;;7.35;63.22;102049.06;4948126;28;119810;-86
2021/12/22 08:51:55;;;;;;;27.27;19.45;;;;;;;7.44;62.81;102059.56;4945426;28;122589;-86
2021/12/22 08:54:21;;;;;;;28.02;19.38;;;;;;;7.48;63.01;102076.72;4952343;28;122866;-85
2021/12/22 08:56:47;;;;;;;30.52;20.90;;;;;;;7.50;63.37;102076.31;4952546;28;119664;-87
2021/12/22 08:59:14;;;;;;;27.92;19.40;;;;;;;7.43;62.53;102062.69;4944676;28;122902;-88
2021/12/22 09:01:40;;;;;;;28.77;19.55;;;;;;;7.24;62.45;102040.13;4930344;28;120045;-87
2021/12/22 09:04:06;;;;;;;29.33;20.73;;;;;;;7.38;63.21;102066.59;4948013;28;122180;-87
2021/12/22 09:06:32;;;;;;;32.42;21.42;;;;;;;7.39;63.63;102057.25;4946943;28;120007;-86
2021/12/22 09:08:58;;;;;;;32.20;21.55;;;;;;;7.47;63.64;102060.72;4963389;28;119857;-86
2021/12/22 09:11:25;;;;;;;28.13;20.05;;;;;;;7.47;63.63;102058.00;4944554;28;122666;-86
2021/12/22 09:13:51;;;;;;;29.23;21.85;;;;;;;7.56;63.35;102066.53;4946465;28;123008;-85
2021/12/22 09:16:17;;;;;;;29.83;20.73;;;;;;;7.50;63.33;102049.00;4961533;28;120178;-86
2021/12/22 09:18:42;;;;;;;32.20;20.17;;;;;;;7.57;62.85;102055.25;4943800;28;120174;-85
2021/12/22 09:21:09;;;;;;;30.48;21.48;;;;;;;7.68;63.12;102057.91;4945138;28;119703;-86
2021/12/22 09:23:35;;;;;;;27.73;20.27;;;;;;;7.73;63.03;102062.97;4945924;28;120904;-87
2021/12/22 09:26:01;;;;;;;29.27;20.60;;;;;;;7.66;62.88;102050.13;4932416;28;122998;-87
2021/12/22 09:28:27;;;;;;;30.33;21.00;;;;;;;7.68;63.35;102061.44;4951002;28;119807;-88
2021/12/22 09:30:52;;;;;;;31.45;20.80;;;;;;;7.58;63.00;102042.38;4932740;28;120198;-88
2021/12/22 09:33:19;;;;;;;31.00;21.27;;;;;;;7.48;62.56;102032.25;4949150;28;120236;-88
2021/12/22 09:35:48;;;;;;;31.40;20.02;;;;;;;7.59;63.14;102041.19;4949763;28;121372;-87
2021/12/22 09:38:14;;;;;;;29.95;20.67;;;;;;;7.61;62.71;102047.03;4947903;28;121798;-89
2021/12/22 09:40:40;;;;;;;29.73;20.20;;;;;;;7.67;62.48;102056.38;4934286;28;119578;-88
2021/12/22 09:43:06;;;;;;;29.65;21.83;;;;;;;7.66;62.57;102038.41;4964811;28;122422;-85
2021/12/22 09:45:34;;;;;;;29.10;20.85;;;;;;;7.74;62.76;102052.81;4945237;28;123936;-87
2021/12/22 09:50:47;;;;;;;32.45;21.25;;;;;;;7.74;62.51;102053.59;4963789;28;121755;-85
2021/12/22 09:53:14;;;;;;;29.42;20.80;;;;;;;7.61;62.93;102031.41;4930834;28;123357;-83
2021/12/22 09:55:40;;;;;;;29.58;19.42;;;;;;;7.81;62.45;102061.78;4975769;28;124714;-87
2021/12/22 09:58:06;;;;;;;30.52;20.60;;;;;;;7.70;62.74;102045.41;4948802;28;122077;-86
2021/12/22 10:00:35;;;;;;;27.15;18.98;;;;;;;7.74;62.16;102050.09;4962884;28;123186;-89
2021/12/22 10:03:01;;;;;;;29.35;18.60;;;;;;;7.80;62.24;102056.69;4961289;28;122597;-87
2021/12/22 10:05:27;;;;;;;28.33;19.77;;;;;;;7.60;62.64;102018.16;4977702;28;120827;-85
2021/12/22 10:08:12;;;;;;;27.90;19.63;;;;;;;7.89;62.42;102065.25;4916431;28;119763;-88
2021/12/22 10:10:44;;;;;;;26.92;18.88;;;;;;;7.87;62.37;102065.63;4955963;28;120890;-82
2021/12/22 10:13:13;;;;;;;26.52;18.05;;;;;;;7.81;62.16;102048.13;4947879;28;121547;-82
2021/12/22 10:15:39;;;;;;;28.88;19.15;;;;;;;7.84;62.16;102049.28;4936576;28;119515;-83
2021/12/22 10:18:17;;;;;;;27.77;18.48;;;;;;;7.91;61.44;102060.94;4955364;28;122742;-89
2021/12/22 10:20:45;;;;;;;25.17;17.92;;;;;;;7.90;61.52;102064.84;4928627;28;123253;-85
2021/12/22 10:23:30;;;;;;;26.52;17.95;;;;;;;7.78;61.27;102053.56;4960336;28;119837;-88
2021/12/22 10:26:03;;;;;;;27.00;17.85;;;;;;;7.79;61.72;102058.63;4944418;28;124820;-85
2021/12/22 10:28:43;;;;;;;26.20;17.98;;;;;;;7.85;61.02;102065.25;4956596;28;120237;-86
2021/12/22 10:31:09;;;;;;;27.55;18.55;;;;;;;7.80;61.16;102051.22;4938002;28;122981;-85
2021/12/22 10:33:39;;;;;;;23.35;16.80;;;;;;;7.57;61.02;102013.47;4944981;28;120350;-88
2021/12/22 10:36:10;;;;;;;28.05;17.73;;;;;;;7.82;60.76;102057.88;4932639;28;120368;-87
2021/12/22 10:38:36;;;;;;;24.60;16.98;;;;;;;7.79;60.84;102055.91;4943604;28;119823;-84
2021/12/22 10:41:26;;;;;;;25.48;17.83;;;;;;;7.75;60.64;102057.09;4971981;28;120470;-81
2021/12/22 10:43:52;;;;;;;23.90;16.77;;;;;;;7.59;60.53;102022.06;4955544;28;120855;-86
2021/12/22 10:46:27;;;;;;;27.33;17.50;;;;;;;7.68;61.32;102044.25;4956819;28;119443;-89
2021/12/22 10:49:17;;;;;;;29.58;18.50;;;;;;;7.65;61.63;102040.38;4953794;28;121508;-89
2021/12/22 10:51:56;;;;;;;26.60;17.77;;;;;;;7.61;61.50;102041.56;4934333;28;121379;-85
2021/12/22 10:54:31;;;;;;;25.80;17.65;;;;;;;7.49;61.05;102017.41;4955967;28;123586;-87
2021/12/22 10:56:58;;;;;;;27.45;18.13;;;;;;;7.55;61.90;102032.22;4947832;28;120386;-88
2021/12/22 10:59:23;;;;;;;24.08;17.40;;;;;;;7.43;61.49;102013.53;4975239;28;122057;-86
2021/12/22 11:01:52;;;;;;;24.33;17.17;;;;;;;7.65;62.23;102036.88;4958797;28;120373;-90
2021/12/22 11:04:26;;;;;;;26.23;17.42;;;;;;;7.52;61.91;102020.13;4958120;28;120010;-86
2021/12/22 11:06:54;;;;;;;26.88;17.80;;;;;;;7.71;62.07;102035.28;4979685;28;121872;-87
2021/12/22 11:09:22;;;;;;;25.45;17.90;;;;;;;7.66;62.13;102013.84;4926589;28;120171;-88
2021/12/22 11:11:51;;;;;;;27.55;18.27;;;;;;;7.77;61.91;102021.97;4942115;28;122022;-85
2021/12/22 11:14:22;;;;;;;29.40;18.20;;;;;;;7.76;61.43;102020.41;4928766;28;123086;-88
2021/12/22 11:17:02;;;;;;;27.10;18.60;;;;;;;7.76;62.29;102029.38;4939111;28;122292;-89
2021/12/22 11:19:35;;;;;;;25.67;17.65;;;;;;;7.63;62.02;102006.44;4961606;28;122226;-88
2021/12/22 11:24:43;;;;;;;29.00;19.55;;;;;;;7.79;62.12;102033.28;4957784;28;120281;-88
2021/12/22 11:27:12;;;;;;;30.40;18.67;;;;;;;7.77;62.39;102022.75;4959260;28;122168;-83
2021/12/22 11:29:42;;;;;;;28.13;18.55;;;;;;;7.83;62.10;102032.09;4961626;28;120359;-86
2021/12/22 11:32:09;;;;;;;25.70;17.85;;;;;;;7.86;61.70;102031.31;4956192;28;122346;-85
2021/12/22 11:34:37;;;;;;;28.83;18.65;;;;;;;7.86;61.67;102020.38;4960330;28;123223;-87
2021/12/22 11:37:10;;;;;;;26.60;18.02;;;;;;;7.93;61.90;102025.78;4954987;28;120345;-87
2021/12/22 11:39:39;;;;;;;28.42;18.10;;;;;;;7.63;61.41;101984.59;4952862;28;121917;-82